LFLC/CFE METAR and TAF weather

Enter ICAO airport designator
Station Type Date Time Source
LFLC METAR 2020/06/01 16:30 UTC NOAA

LFLC 011630Z AUTO 06008KT 020V090 9999 VCTS ///CB 23/10 Q1017 TEMPO 3000 TSRA


Station Type Date Time Source
LFLC Decoded METAR 2020/06/01 16:30 UTC NOAA

Clermont-Ferrand, France (LFLC) 45-47N 003-10E 330M
Jun 01, 2020 - 12:30 PM EDT / 2020.06.01 1630 UTC
Wind: from the ENE (060 degrees) at 9 MPH (8 KT) (direction variable):0
Visibility: greater than 7 mile(s):0
Weather: thunder in the vicinity; Cumulonimbus clouds observed
Temperature: 73 F (23 C)
Dew Point: 50 F (10 C)
Relative Humidity: 43%
Pressure (altimeter): 30.03 in. Hg (1017 hPa)
ob: LFLC 011630Z AUTO 06008KT 020V090 9999 VCTS ///CB 23/10 Q1017 TEMPO 3000 TSRA
cycle: 16

Station Type Date Time Source
LFLC TAF 2020/06/01 15:42 UTC NOAA

TAF LFLC 011400Z 0115/0215 VRB02KT 9999 SCT060 PROB40
TEMPO 0115/0124 VRB15KT 3000 TSRA BKN060CB

Example: see airport list